Time;durP1;ratioP1;P1;durP2;ratioP2;P2;SDS_P1;SDS_P2;PMS_P1;PMS_P2;Temp;Humidity;BMP_temperature;BMP_pressure;BME280_temperature;BME280_humidity;BME280_pressure;Samples;Min_cycle;Max_cycle;Signal;HPM_P1;HPM_P2
2021/04/01 00:00:37;;;;;;;22.20;12.10;;;14.50;87.30;;;;;;5040736;28;20471;-73
2021/04/01 00:03:04;;;;;;;17.70;12.33;;;14.40;87.90;;;;;;5051422;28;20435;-75
2021/04/01 00:05:31;;;;;;;18.80;12.20;;;14.40;88.90;;;;;;5026382;28;20471;-76
2021/04/01 00:07:58;;;;;;;14.33;11.60;;;14.30;89.10;;;;;;5043305;28;20436;-74
2021/04/01 00:10:28;;;;;;;23.27;12.50;;;14.30;87.50;;;;;;5030090;28;20456;-74
2021/04/01 00:12:55;;;;;;;17.03;11.90;;;14.40;88.30;;;;;;5025101;28;20442;-76
2021/04/01 00:15:22;;;;;;;13.00;11.50;;;14.30;88.70;;;;;;5018683;28;20471;-75
2021/04/01 00:17:49;;;;;;;19.90;12.43;;;14.20;90.00;;;;;;5051664;28;20436;-73
2021/04/01 00:20:16;;;;;;;18.23;11.13;;;14.20;89.20;;;;;;5049770;28;20461;-74
2021/04/01 00:22:43;;;;;;;12.50;11.30;;;14.10;89.60;;;;;;5049107;28;20426;-76
2021/04/01 00:25:12;;;;;;;16.73;13.17;;;14.10;89.80;;;;;;5030581;28;20466;-74
2021/04/01 00:27:39;;;;;;;19.50;13.50;;;14.00;90.20;;;;;;5032518;28;20442;-73
2021/04/01 00:30:08;;;;;;;14.27;12.67;;;14.10;89.20;;;;;;5028876;28;20524;-73
2021/04/01 00:32:35;;;;;;;18.30;13.20;;;14.10;88.30;;;;;;5051177;28;20434;-74
2021/04/01 00:35:03;;;;;;;21.50;11.97;;;14.00;90.00;;;;;;5032906;28;20482;-75
2021/04/01 00:37:31;;;;;;;13.03;11.07;;;13.90;90.00;;;;;;5027935;28;20478;-76
2021/04/01 00:39:57;;;;;;;19.43;12.47;;;14.00;89.00;;;;;;5042410;28;20996;-73
2021/04/01 00:42:25;;;;;;;17.20;12.10;;;14.00;88.40;;;;;;5051509;28;20431;-74
2021/04/01 00:44:51;;;;;;;18.50;12.30;;;14.00;88.40;;;;;;5037644;28;20471;-74
2021/04/01 00:47:18;;;;;;;18.43;11.80;;;14.00;88.40;;;;;;5044602;28;20928;-74
2021/04/01 00:49:45;;;;;;;16.43;12.67;;;14.00;88.50;;;;;;5050519;28;20953;-73
2021/04/01 00:52:12;;;;;;;18.40;11.60;;;14.00;88.30;;;;;;5033786;28;20848;-74
2021/04/01 00:54:38;;;;;;;21.00;11.60;;;14.00;89.00;;;;;;5048233;28;20459;-76
2021/04/01 00:57:05;;;;;;;15.20;12.70;;;14.00;89.30;;;;;;5051273;28;20438;-76
2021/04/01 00:59:32;;;;;;;15.60;13.00;;;13.90;89.10;;;;;;5052208;28;20477;-75
2021/04/01 01:02:04;;;;;;;16.23;13.53;;;13.80;89.30;;;;;;5036308;28;20432;-73
2021/04/01 01:04:35;;;;;;;13.57;11.20;;;13.70;90.40;;;;;;5032686;28;20558;-75
2021/04/01 01:07:01;;;;;;;15.43;11.83;;;13.60;90.50;;;;;;5050484;28;20643;-75
2021/04/01 01:09:28;;;;;;;13.60;12.27;;;13.50;90.70;;;;;;5031885;28;20467;-73
2021/04/01 01:11:55;;;;;;;21.57;12.70;;;13.50;90.80;;;;;;5051260;28;20454;-74
2021/04/01 01:14:24;;;;;;;17.60;13.03;;;13.40;91.20;;;;;;5048417;28;20466;-74
2021/04/01 01:16:50;;;;;;;16.90;12.10;;;13.30;91.70;;;;;;5049558;28;20439;-76
2021/04/01 01:19:17;;;;;;;17.83;12.90;;;13.00;92.30;;;;;;5049351;28;20466;-73
2021/04/01 01:21:45;;;;;;;16.47;11.20;;;12.90;92.70;;;;;;5049260;28;20458;-74
2021/04/01 01:24:16;;;;;;;16.70;13.37;;;12.90;93.20;;;;;;5032540;28;20977;-75
2021/04/01 01:26:44;;;;;;;15.30;12.43;;;12.80;93.60;;;;;;5049991;28;20462;-76
2021/04/01 01:29:11;;;;;;;16.20;10.93;;;12.80;94.00;;;;;;5028936;28;20547;-74
2021/04/01 01:31:46;;;;;;;16.20;11.87;;;12.80;94.30;;;;;;5047892;28;20500;-74
2021/04/01 01:34:12;;;;;;;17.07;13.50;;;12.90;94.40;;;;;;5017599;28;21030;-75
2021/04/01 01:36:38;;;;;;;14.77;12.40;;;13.00;93.90;;;;;;5049408;28;20496;-74
2021/04/01 01:39:05;;;;;;;16.30;11.53;;;13.30;93.50;;;;;;5042598;28;20459;-74
2021/04/01 01:41:32;;;;;;;19.97;14.07;;;13.30;93.50;;;;;;5050102;28;21024;-73
2021/04/01 01:43:59;;;;;;;15.23;12.17;;;13.30;93.20;;;;;;5038880;28;20844;-75
2021/04/01 01:46:26;;;;;;;16.10;12.13;;;13.20;93.30;;;;;;5033312;28;21046;-75
2021/04/01 01:48:59;;;;;;;16.80;11.70;;;13.20;92.90;;;;;;5038847;28;21007;-74
2021/04/01 01:51:27;;;;;;;16.53;11.90;;;13.00;92.70;;;;;;5036466;28;20493;-73
2021/04/01 01:53:53;;;;;;;13.43;11.83;;;13.00;92.80;;;;;;5050297;28;20559;-75
2021/04/01 01:56:21;;;;;;;18.20;12.07;;;12.80;93.60;;;;;;5037480;28;20464;-74
2021/04/01 01:58:49;;;;;;;14.63;11.43;;;12.70;93.80;;;;;;5049631;28;20549;-75
2021/04/01 02:01:18;;;;;;;11.67;10.23;;;12.70;94.50;;;;;;5044487;28;21143;-73
2021/04/01 02:03:44;;;;;;;16.47;11.90;;;12.60;94.60;;;;;;5039836;28;20470;-75
2021/04/01 02:06:12;;;;;;;15.93;12.87;;;12.40;94.90;;;;;;5052912;28;20454;-75
2021/04/01 02:08:38;;;;;;;18.60;13.10;;;12.30;95.50;;;;;;5053182;28;20520;-74
2021/04/01 02:11:05;;;;;;;16.03;11.13;;;12.40;96.30;;;;;;5035229;28;20444;-72
2021/04/01 02:13:33;;;;;;;13.90;12.40;;;12.60;96.00;;;;;;5016088;28;20933;-75
2021/04/01 02:16:00;;;;;;;18.10;12.53;;;12.70;95.50;;;;;;5044782;28;20450;-74
2021/04/01 02:18:28;;;;;;;16.43;11.73;;;12.80;95.30;;;;;;5052913;28;20443;-75
2021/04/01 02:20:57;;;;;;;21.43;13.60;;;12.80;95.10;;;;;;5053781;28;20443;-74
2021/04/01 02:23:25;;;;;;;14.07;11.03;;;12.90;95.10;;;;;;5034057;28;20535;-76
2021/04/01 02:25:53;;;;;;;16.13;12.17;;;13.00;94.70;;;;;;5037802;28;20635;-75
2021/04/01 02:28:23;;;;;;;20.07;11.40;;;13.00;94.70;;;;;;5035421;28;20423;-74
2021/04/01 02:30:54;;;;;;;23.53;13.63;;;13.10;94.10;;;;;;5038318;28;20423;-75
2021/04/01 02:33:26;;;;;;;20.40;13.00;;;13.10;93.90;;;;;;5034972;28;20431;-75
2021/04/01 02:35:53;;;;;;;19.53;13.80;;;13.20;93.70;;;;;;5018527;28;20490;-75
2021/04/01 02:38:20;;;;;;;20.93;14.10;;;13.20;93.60;;;;;;5041756;28;20895;-76
2021/04/01 02:40:49;;;;;;;20.90;13.80;;;13.10;94.10;;;;;;5048438;28;20430;-74
2021/04/01 02:43:33;;;;;;;21.40;13.40;;;13.10;93.70;;;;;;5035958;28;20531;-74
2021/04/01 02:46:04;;;;;;;20.30;14.43;;;13.10;93.50;;;;;;5039368;28;20498;-75
2021/04/01 02:48:31;;;;;;;18.07;13.07;;;13.10;94.10;;;;;;5052813;28;20832;-75
2021/04/01 02:50:58;;;;;;;17.90;12.47;;;13.00;94.00;;;;;;5052325;28;20454;-73
2021/04/01 02:53:25;;;;;;;18.30;12.57;;;12.90;94.10;;;;;;5048661;28;21078;-74
2021/04/01 02:55:54;;;;;;;20.20;14.03;;;12.90;94.40;;;;;;5044184;28;20542;-74
2021/04/01 02:58:21;;;;;;;21.63;13.00;;;12.90;94.20;;;;;;5048097;28;20523;-76
2021/04/01 03:00:48;;;;;;;18.47;13.00;;;12.80;94.40;;;;;;5048802;28;20427;-75
2021/04/01 03:03:19;;;;;;;19.87;13.77;;;12.80;94.60;;;;;;5052688;28;20493;-74
2021/04/01 03:05:46;;;;;;;19.43;14.37;;;12.90;94.20;;;;;;5059329;28;20509;-74
2021/04/01 03:08:12;;;;;;;26.03;16.37;;;12.90;94.80;;;;;;5062343;28;20461;-74
2021/04/01 03:10:39;;;;;;;17.23;14.50;;;12.70;94.80;;;;;;5050977;28;20470;-74
2021/04/01 03:13:05;;;;;;;24.07;14.73;;;12.70;94.80;;;;;;5035241;28;20427;-74
2021/04/01 03:15:32;;;;;;;21.90;15.40;;;12.70;95.00;;;;;;5050973;28;20478;-74
2021/04/01 03:17:58;;;;;;;19.60;14.57;;;12.80;94.50;;;;;;5052501;28;20514;-74
2021/04/01 03:20:25;;;;;;;20.87;15.93;;;12.80;94.60;;;;;;5034651;28;20552;-74
2021/04/01 03:22:51;;;;;;;23.40;16.47;;;12.90;94.00;;;;;;5027971;28;20448;-74
2021/04/01 03:25:18;;;;;;;26.17;16.63;;;13.00;93.90;;;;;;5051987;28;20467;-74
2021/04/01 03:27:44;;;;;;;24.10;16.83;;;13.00;93.90;;;;;;5052095;28;20435;-74
2021/04/01 03:30:13;;;;;;;21.23;15.97;;;12.80;94.70;;;;;;5040730;28;20550;-73
2021/04/01 03:32:47;;;;;;;23.30;15.97;;;12.80;95.00;;;;;;5051594;28;20443;-74
2021/04/01 03:35:16;;;;;;;27.50;17.27;;;12.70;95.00;;;;;;5034131;28;21045;-75
2021/04/01 03:37:44;;;;;;;29.70;18.37;;;12.80;94.40;;;;;;5024189;28;20829;-76
2021/04/01 03:40:11;;;;;;;22.77;16.17;;;12.70;95.00;;;;;;5032530;28;20464;-73
2021/04/01 03:42:38;;;;;;;23.07;16.83;;;12.70;95.00;;;;;;5034614;28;20863;-74
2021/04/01 03:45:11;;;;;;;20.80;15.97;;;12.70;95.20;;;;;;5019847;28;20550;-74
2021/04/01 03:47:39;;;;;;;22.43;16.00;;;12.60;95.40;;;;;;5044777;28;20530;-75
2021/04/01 03:50:08;;;;;;;23.57;16.80;;;12.60;95.50;;;;;;5033953;28;20455;-73
2021/04/01 03:52:35;;;;;;;22.43;16.77;;;12.60;95.60;;;;;;5052037;28;20439;-73
2021/04/01 03:55:44;;;;;;;23.47;17.70;;;12.50;95.70;;;;;;5024892;28;21026;-74
2021/04/01 03:57:57;;;;;;;23.90;17.30;;;12.50;95.60;;;;;;5038863;28;20442;-76
2021/04/01 04:00:29;;;;;;;28.20;18.10;;;12.50;95.70;;;;;;5038254;28;20529;-74
2021/04/01 04:14:01;;;;;;;20.33;16.37;;;12.40;97.20;;;;;;5029767;28;20478;-75
2021/04/01 04:16:27;;;;;;;30.20;18.37;;;12.50;97.50;;;;;;5033590;28;20553;-74
2021/04/01 04:18:55;;;;;;;24.10;16.43;;;12.50;96.80;;;;;;5050322;28;20833;-74
2021/04/01 04:21:21;;;;;;;22.10;15.67;;;12.60;96.30;;;;;;5051652;28;20467;-74
2021/04/01 04:23:48;;;;;;;21.17;16.80;;;12.60;96.20;;;;;;5041411;28;20469;-74
2021/04/01 04:26:15;;;;;;;21.20;15.00;;;12.60;96.30;;;;;;5033645;28;20486;-74
2021/04/01 04:28:43;;;;;;;20.70;15.90;;;12.60;96.50;;;;;;5047589;28;21070;-74
2021/04/01 04:31:09;;;;;;;21.73;16.17;;;12.60;97.00;;;;;;5038542;28;20430;-75
2021/04/01 04:33:36;;;;;;;22.40;15.57;;;12.50;96.70;;;;;;5016937;28;20431;-75
2021/04/01 04:36:04;;;;;;;24.27;17.10;;;12.50;96.90;;;;;;5032318;28;20733;-75
2021/04/01 04:38:31;;;;;;;20.27;15.63;;;12.50;97.00;;;;;;5041288;28;20532;-74
2021/04/01 04:40:58;;;;;;;18.80;15.03;;;12.50;96.90;;;;;;5035823;28;20463;-73
2021/04/01 04:43:26;;;;;;;17.80;13.43;;;12.40;97.70;;;;;;5049951;28;20506;-75
2021/04/01 04:45:58;;;;;;;21.23;13.93;;;12.40;98.00;;;;;;5016574;28;20538;-74
2021/04/01 04:48:30;;;;;;;17.60;13.60;;;12.40;97.70;;;;;;5050954;28;20524;-75
2021/04/01 04:51:00;;;;;;;17.83;14.10;;;12.30;98.40;;;;;;5051230;28;20431;-73
2021/04/01 04:53:27;;;;;;;19.23;14.23;;;12.20;99.10;;;;;;5031170;28;21040;-75
2021/04/01 04:58:34;;;;;;;22.00;14.70;;;12.10;99.60;;;;;;5049883;28;20842;-75
2021/04/01 05:01:12;;;;;;;23.03;14.50;;;12.00;99.90;;;;;;5037319;28;20469;-73
2021/04/01 05:09:05;;;;;;;16.57;14.43;;;12.00;99.90;;;;;;5032237;28;20546;-74
2021/04/01 05:11:33;;;;;;;21.10;15.03;;;12.00;99.90;;;;;;5046697;28;20917;-73
2021/04/01 05:14:05;;;;;;;20.60;15.77;;;12.00;99.90;;;;;;5047498;28;20510;-74
2021/04/01 05:16:35;;;;;;;23.83;15.70;;;12.00;99.90;;;;;;5045462;28;20458;-74
2021/04/01 05:19:05;;;;;;;17.47;13.47;;;11.90;99.90;;;;;;5036801;28;20496;-74
2021/04/01 05:21:45;;;;;;;23.23;14.40;;;11.90;99.90;;;;;;5045406;28;20775;-74
2021/04/01 05:24:13;;;;;;;26.73;17.33;;;11.90;99.90;;;;;;5035433;28;20557;-74
2021/04/01 05:27:00;;;;;;;22.80;16.60;;;11.90;99.90;;;;;;5055150;28;20450;-74
2021/04/01 05:29:33;;;;;;;24.97;16.30;;;11.80;99.90;;;;;;5043593;28;20463;-75
2021/04/01 05:32:03;;;;;;;26.73;15.47;;;11.70;99.90;;;;;;5047724;28;20457;-73
2021/04/01 05:34:30;;;;;;;24.87;17.53;;;11.70;99.90;;;;;;5036955;28;20861;-75
2021/04/01 05:36:58;;;;;;;29.97;19.40;;;11.70;99.90;;;;;;5032166;28;20531;-76
2021/04/01 05:39:37;;;;;;;24.33;17.20;;;11.80;99.90;;;;;;5039315;28;20851;-75
2021/04/01 05:42:05;;;;;;;26.00;19.27;;;11.80;99.90;;;;;;5054770;28;20426;-74
2021/04/01 05:44:38;;;;;;;27.60;17.87;;;11.80;99.90;;;;;;5051318;28;20471;-75
2021/04/01 05:47:14;;;;;;;32.77;19.77;;;11.80;99.90;;;;;;5041160;28;21005;-76
2021/04/01 06:06:26;;;;;;;34.50;21.07;;;12.00;99.90;;;;;;5053748;28;21007;-75
2021/04/01 06:08:58;;;;;;;26.97;18.53;;;12.10;99.90;;;;;;5051026;28;20459;-74
2021/04/01 06:11:25;;;;;;;31.13;17.87;;;12.10;99.90;;;;;;5035196;28;20433;-74
2021/04/01 06:14:10;;;;;;;29.60;19.37;;;12.10;99.90;;;;;;5051015;28;20469;-76
2021/04/01 06:16:43;;;;;;;28.10;16.77;;;12.10;99.90;;;;;;5035973;28;20808;-75
2021/04/01 06:19:12;;;;;;;23.80;17.73;;;12.20;99.90;;;;;;5050218;28;20567;-76
2021/04/01 06:21:40;;;;;;;26.63;17.73;;;12.20;99.90;;;;;;5011444;28;20430;-75
2021/04/01 06:24:21;;;;;;;31.53;18.73;;;12.20;99.90;;;;;;5018903;28;20602;-76
2021/04/01 06:27:14;;;;;;;26.83;18.60;;;12.30;99.90;;;;;;5049400;28;20950;-76
2021/04/01 06:29:42;;;;;;;35.40;19.23;;;12.40;99.90;;;;;;5024187;28;20554;-76
2021/04/01 06:32:21;;;;;;;22.83;16.73;;;12.50;99.90;;;;;;5051550;28;20431;-74
2021/04/01 06:34:52;;;;;;;32.33;18.10;;;12.60;99.90;;;;;;5051033;28;20474;-74
2021/04/01 06:40:01;;;;;;;26.43;18.03;;;12.80;99.90;;;;;;5038256;28;20491;-74
2021/04/01 06:42:33;;;;;;;28.40;19.80;;;13.00;99.90;;;;;;5053906;28;20947;-74
2021/04/01 06:45:08;;;;;;;30.30;18.93;;;13.10;99.50;;;;;;5020707;28;20529;-73
2021/04/01 06:47:37;;;;;;;23.97;15.47;;;13.20;99.80;;;;;;5032461;28;20934;-75
2021/04/01 06:50:14;;;;;;;26.40;18.43;;;13.20;99.90;;;;;;5042982;28;20913;-76
2021/04/01 06:52:48;;;;;;;25.30;18.00;;;13.40;99.60;;;;;;5034446;28;20471;-74
2021/04/01 06:58:22;;;;;;;29.90;18.97;;;13.80;96.40;;;;;;5052802;28;20534;-76
2021/04/01 07:01:26;;;;;;;26.20;18.03;;;13.90;95.20;;;;;;5026662;28;20553;-76
2021/04/01 07:04:03;;;;;;;28.03;18.20;;;14.10;94.00;;;;;;5051867;28;20463;-74
2021/04/01 07:06:42;;;;;;;25.97;18.47;;;14.20;94.50;;;;;;5030903;28;20474;-76
2021/04/01 07:09:35;;;;;;;26.73;19.73;;;14.40;93.90;;;;;;5034569;28;20500;-77
2021/04/01 07:12:22;;;;;;;31.63;20.93;;;14.60;93.10;;;;;;5053263;28;20544;-74
2021/04/01 07:14:53;;;;;;;29.27;20.33;;;14.90;92.30;;;;;;5033335;28;20542;-77
2021/04/01 07:47:56;;;;;;;35.77;22.93;;;17.80;70.20;;;;;;5016613;28;20496;-79
2021/04/01 07:50:25;;;;;;;34.63;24.83;;;18.00;70.30;;;;;;5035106;28;20481;-77
2021/04/01 07:52:58;;;;;;;38.23;24.93;;;18.20;68.30;;;;;;5047012;28;20509;-77
2021/04/01 07:55:45;;;;;;;37.33;25.03;;;18.30;66.30;;;;;;5049202;28;20507;-76
2021/04/01 08:01:00;;;;;;;45.33;27.20;;;18.40;67.40;;;;;;5051437;28;20894;-78
2021/04/01 08:06:21;;;;;;;33.43;25.20;;;18.90;67.10;;;;;;5052202;28;20454;-77
2021/04/01 08:08:50;;;;;;;37.50;26.10;;;19.10;66.10;;;;;;5040948;28;20881;-79
2021/04/01 08:11:45;;;;;;;39.27;26.40;;;19.10;66.40;;;;;;5018603;28;20875;-77
2021/04/01 08:14:19;;;;;;;32.73;26.63;;;19.20;67.80;;;;;;5032872;28;20487;-79
2021/04/01 08:16:58;;;;;;;39.47;28.50;;;19.40;68.00;;;;;;5034000;28;20496;-78
2021/04/01 08:19:30;;;;;;;39.97;28.00;;;19.40;66.30;;;;;;5034366;28;20470;-78
2021/04/01 08:22:23;;;;;;;37.93;27.60;;;19.70;63.00;;;;;;5042485;28;20443;-76
2021/04/01 08:25:20;;;;;;;37.17;27.27;;;20.00;59.70;;;;;;5049897;28;20554;-79
2021/04/01 08:37:15;;;;;;;48.43;30.10;;;19.90;63.80;;;;;;5014806;28;20428;-79
2021/04/01 08:40:03;;;;;;;39.57;28.07;;;19.90;63.70;;;;;;5044391;28;20465;-79
2021/04/01 08:42:58;;;;;;;43.93;28.87;;;19.90;65.70;;;;;;5035419;28;20460;-79
2021/04/01 08:46:07;;;;;;;45.73;31.23;;;20.00;66.70;;;;;;5000502;28;20505;-79
2021/04/01 08:49:02;;;;;;;42.70;32.40;;;20.40;61.00;;;;;;5029078;28;20525;-78
2021/04/01 08:51:53;;;;;;;47.53;33.60;;;20.40;60.40;;;;;;5056112;28;20434;-80
2021/04/01 08:54:34;;;;;;;48.80;33.13;;;20.30;61.00;;;;;;5034691;28;20475;-79
2021/04/01 08:57:09;;;;;;;40.77;32.57;;;20.30;60.00;;;;;;5038123;28;20438;-78
2021/04/01 08:59:54;;;;;;;45.00;32.67;;;20.60;59.00;;;;;;5051897;28;20473;-79
2021/04/01 09:02:24;;;;;;;43.70;31.70;;;20.70;57.50;;;;;;5052773;28;20903;-79
2021/04/01 09:04:59;;;;;;;49.93;30.50;;;20.60;58.80;;;;;;5037637;28;20549;-79
2021/04/01 09:07:39;;;;;;;42.13;30.93;;;20.60;59.10;;;;;;5055891;28;20456;-78
2021/04/01 09:13:19;;;;;;;44.40;31.93;;;20.80;58.00;;;;;;5018642;28;20442;-79
2021/04/01 09:15:53;;;;;;;40.37;30.77;;;21.00;57.90;;;;;;5017116;28;20981;-79
2021/04/01 09:18:25;;;;;;;44.80;30.67;;;21.00;58.50;;;;;;5031702;28;20457;-78
2021/04/01 09:20:57;;;;;;;43.67;31.13;;;21.10;56.00;;;;;;5021520;28;20484;-79
2021/04/01 09:23:36;;;;;;;43.63;29.80;;;21.10;54.30;;;;;;5048129;28;20430;-78
2021/04/01 09:26:13;;;;;;;48.63;31.10;;;21.10;54.80;;;;;;5036997;28;20473;-79
2021/04/01 09:28:42;;;;;;;36.10;28.63;;;21.10;55.20;;;;;;5034591;28;20594;-77
2021/04/01 09:31:11;;;;;;;41.23;29.97;;;21.20;56.20;;;;;;5029370;28;20517;-76
2021/04/01 09:33:42;;;;;;;42.97;28.60;;;21.20;55.50;;;;;;5043358;28;20925;-78
2021/04/01 09:36:14;;;;;;;40.10;29.47;;;21.20;53.60;;;;;;5028833;28;20459;-78
2021/04/01 09:39:15;;;;;;;41.00;29.17;;;21.20;53.00;;;;;;5046108;28;20447;-78
2021/04/01 09:41:44;;;;;;;36.00;27.10;;;21.10;53.30;;;;;;5050229;28;20431;-78
2021/04/01 09:44:11;;;;;;;36.67;25.23;;;21.10;53.90;;;;;;5016996;28;20472;-79
2021/04/01 09:46:56;;;;;;;44.93;26.00;;;20.90;55.40;;;;;;5024161;28;20496;-79
2021/04/01 09:49:28;;;;;;;32.57;23.20;;;20.90;54.10;;;;;;5037156;28;20454;-79
2021/04/01 09:51:55;;;;;;;34.40;23.30;;;20.90;53.90;;;;;;5036264;28;20514;-78
2021/04/01 09:54:26;;;;;;;41.20;26.27;;;21.00;54.70;;;;;;5020777;28;20812;-79
2021/04/01 09:57:10;;;;;;;33.97;24.43;;;21.20;53.50;;;;;;5023653;28;20432;-77
2021/04/01 09:59:48;;;;;;;42.37;27.50;;;21.10;53.30;;;;;;5044196;28;20806;-78
2021/04/01 10:02:24;;;;;;;37.97;25.10;;;21.30;53.50;;;;;;5043876;28;20527;-79
2021/04/01 10:05:01;;;;;;;37.97;25.13;;;21.60;52.90;;;;;;5053659;28;20475;-77
2021/04/01 10:07:36;;;;;;;33.73;24.50;;;21.80;52.00;;;;;;5023506;28;20432;-76
2021/04/01 10:10:06;;;;;;;43.40;26.03;;;21.80;52.60;;;;;;5002375;28;20546;-79
2021/04/01 10:12:43;;;;;;;36.60;25.90;;;21.90;52.90;;;;;;5027153;28;20511;-75
2021/04/01 10:15:27;;;;;;;39.40;27.53;;;21.80;53.20;;;;;;5010586;28;20696;-79
2021/04/01 10:17:54;;;;;;;45.53;26.97;;;21.90;52.90;;;;;;5053585;28;20450;-79
2021/04/01 10:20:22;;;;;;;33.77;24.70;;;21.70;52.10;;;;;;5049087;28;20464;-78
2021/04/01 10:22:49;;;;;;;35.87;25.23;;;21.70;54.30;;;;;;5051506;28;20448;-78
2021/04/01 10:25:21;;;;;;;35.60;25.23;;;21.70;53.20;;;;;;5034765;28;20880;-77
2021/04/01 10:30:30;;;;;;;33.83;23.70;;;21.70;54.20;;;;;;5033671;28;20523;-79
2021/04/01 10:33:22;;;;;;;36.53;25.27;;;21.60;55.20;;;;;;5020397;28;20431;-79
2021/04/01 10:35:52;;;;;;;35.67;23.20;;;21.80;53.20;;;;;;5018926;28;20810;-79
2021/04/01 10:38:19;;;;;;;33.77;23.00;;;21.70;54.00;;;;;;5010151;28;20456;-78
2021/04/01 10:40:49;;;;;;;39.70;26.20;;;21.60;54.00;;;;;;5036313;28;20459;-78
2021/04/01 10:43:19;;;;;;;36.33;24.13;;;21.40;55.00;;;;;;5035682;28;20455;-76
2021/04/01 10:45:46;;;;;;;41.87;24.77;;;21.40;56.20;;;;;;5032176;28;20470;-78
2021/04/01 10:48:33;;;;;;;36.20;23.60;;;21.40;56.00;;;;;;5035099;28;20435;-78
2021/04/01 10:51:04;;;;;;;39.33;25.60;;;21.20;56.60;;;;;;5036093;28;20443;-79
2021/04/01 10:53:32;;;;;;;41.63;25.70;;;21.10;56.70;;;;;;5036628;28;20466;-78
2021/04/01 10:56:06;;;;;;;37.10;24.43;;;21.10;55.40;;;;;;5053435;28;20446;-76
2021/04/01 10:58:33;;;;;;;37.17;22.80;;;21.10;54.40;;;;;;5052875;28;20970;-78
2021/04/01 11:01:02;;;;;;;34.60;21.57;;;21.20;55.50;;;;;;5054022;28;20419;-78
2021/04/01 11:03:43;;;;;;;33.53;21.50;;;21.20;54.80;;;;;;5035908;28;20427;-78
2021/04/01 11:06:12;;;;;;;36.83;21.00;;;21.10;54.70;;;;;;5034632;28;20485;-77
2021/04/01 11:08:43;;;;;;;24.70;17.70;;;21.10;57.60;;;;;;5019159;28;20481;-76
2021/04/01 11:11:13;;;;;;;27.80;18.23;;;21.20;54.50;;;;;;5034798;28;20463;-74
2021/04/01 11:13:45;;;;;;;28.63;19.37;;;21.30;52.80;;;;;;5025481;28;20534;-75
2021/04/01 11:16:14;;;;;;;27.43;19.37;;;21.10;55.90;;;;;;5015739;28;20954;-74
2021/04/01 11:18:50;;;;;;;26.80;18.20;;;21.10;58.10;;;;;;5032329;28;20460;-77
2021/04/01 11:21:20;;;;;;;29.90;20.67;;;20.90;56.20;;;;;;5018007;28;20786;-77
2021/04/01 11:23:46;;;;;;;34.57;22.00;;;20.80;57.60;;;;;;5034085;28;20858;-76
2021/04/01 11:26:13;;;;;;;29.43;20.63;;;20.70;57.80;;;;;;5033500;28;20492;-76
2021/04/01 11:28:46;;;;;;;26.67;19.60;;;20.70;57.90;;;;;;5034072;28;20459;-78
2021/04/01 11:31:22;;;;;;;27.43;20.87;;;20.70;59.90;;;;;;5034860;28;20561;-75
2021/04/01 11:33:51;;;;;;;35.27;22.10;;;21.00;54.70;;;;;;5033397;28;20471;-75
2021/04/01 11:36:22;;;;;;;31.43;19.47;;;21.10;56.60;;;;;;5031530;28;20452;-76
2021/04/01 11:38:58;;;;;;;31.13;22.40;;;21.00;56.50;;;;;;5031472;28;20457;-76
2021/04/01 11:41:48;;;;;;;36.53;23.17;;;21.10;58.20;;;;;;5033078;28;20421;-76
2021/04/01 11:44:21;;;;;;;40.13;22.63;;;21.10;59.10;;;;;;5022526;28;20467;-78
2021/04/01 11:46:51;;;;;;;42.97;23.10;;;21.00;61.20;;;;;;5035172;28;20517;-76
2021/04/01 11:49:18;;;;;;;40.70;26.47;;;21.10;61.00;;;;;;5034563;28;20984;-76
2021/04/01 11:51:45;;;;;;;33.07;24.37;;;21.20;58.60;;;;;;5050662;28;20470;-78
2021/04/01 11:54:22;;;;;;;32.07;24.53;;;21.30;59.40;;;;;;5031110;28;20460;-75
2021/04/01 11:56:49;;;;;;;40.30;23.90;;;21.30;58.10;;;;;;5031672;28;20825;-76
2021/04/01 11:59:21;;;;;;;38.80;25.80;;;21.30;60.20;;;;;;5021390;28;20475;-76
2021/04/01 12:01:58;;;;;;;35.43;25.43;;;21.30;61.30;;;;;;5034916;28;20506;-79
2021/04/01 12:04:28;;;;;;;37.67;27.40;;;21.40;60.00;;;;;;5033441;28;20994;-79
2021/04/01 12:06:56;;;;;;;39.73;26.03;;;21.70;58.60;;;;;;5052364;28;20419;-79
2021/04/01 12:09:26;;;;;;;36.00;25.93;;;21.70;58.90;;;;;;5020690;28;20459;-78
2021/04/01 12:11:52;;;;;;;43.20;25.10;;;21.80;58.30;;;;;;5044412;28;20424;-78
2021/04/01 12:14:19;;;;;;;42.67;25.83;;;21.90;57.00;;;;;;5044387;28;20493;-75
2021/04/01 12:16:46;;;;;;;36.10;25.83;;;21.90;56.70;;;;;;5001517;28;20845;-79
2021/04/01 12:19:13;;;;;;;37.93;27.30;;;22.00;56.40;;;;;;5033549;28;20553;-80
2021/04/01 12:21:41;;;;;;;38.27;25.77;;;22.00;57.20;;;;;;5052647;28;20514;-79
2021/04/01 12:24:09;;;;;;;40.70;26.00;;;22.10;59.20;;;;;;5023811;28;20456;-79
2021/04/01 12:26:50;;;;;;;39.40;27.30;;;22.10;59.90;;;;;;5050699;28;21006;-79
2021/04/01 12:29:18;;;;;;;39.50;26.83;;;22.20;58.10;;;;;;5027956;28;20727;-77
2021/04/01 12:31:54;;;;;;;40.87;27.10;;;22.30;55.60;;;;;;5052239;28;20428;-79
2021/04/01 12:34:28;;;;;;;39.23;27.70;;;22.20;58.90;;;;;;5033702;28;20490;-79
2021/04/01 12:37:02;;;;;;;36.40;25.90;;;22.10;58.10;;;;;;5033713;28;20447;-77
2021/04/01 12:39:38;;;;;;;35.13;26.57;;;22.20;54.80;;;;;;5032871;28;20510;-80
2021/04/01 12:42:06;;;;;;;39.53;26.40;;;22.20;57.20;;;;;;5052085;28;20431;-79
2021/04/01 12:44:37;;;;;;;39.17;25.83;;;22.10;58.60;;;;;;5025007;28;20800;-77
2021/04/01 12:47:05;;;;;;;40.00;28.33;;;22.10;59.60;;;;;;5026347;28;20506;-75
2021/04/01 12:49:33;;;;;;;39.73;25.57;;;22.20;60.00;;;;;;5052165;28;20455;-79
2021/04/01 12:52:01;;;;;;;37.43;27.00;;;22.20;59.90;;;;;;5035734;28;20489;-80
2021/04/01 12:54:35;;;;;;;40.83;26.50;;;22.20;60.10;;;;;;5052039;28;20464;-78
2021/04/01 12:57:07;;;;;;;38.43;26.27;;;22.20;60.90;;;;;;5033897;28;20435;-78
2021/04/01 12:59:40;;;;;;;39.73;26.60;;;22.10;58.90;;;;;;5014789;28;20905;-78
2021/04/01 13:02:18;;;;;;;41.57;24.43;;;22.10;58.60;;;;;;5032264;28;20826;-80
2021/04/01 13:04:54;;;;;;;46.93;27.50;;;22.10;61.60;;;;;;5021806;28;20551;-79
2021/04/01 13:07:27;;;;;;;38.27;24.43;;;22.10;61.20;;;;;;5028399;28;20493;-79
2021/04/01 13:12:39;;;;;;;39.77;24.23;;;22.10;60.20;;;;;;5035554;28;20423;-80
2021/04/01 13:15:06;;;;;;;43.57;26.93;;;22.10;59.60;;;;;;5046177;28;20467;-78
2021/04/01 13:17:32;;;;;;;38.30;24.83;;;22.00;59.40;;;;;;5050032;28;20428;-79
2021/04/01 13:20:00;;;;;;;35.93;26.43;;;22.00;59.70;;;;;;5031758;28;20491;-80
2021/04/01 13:22:31;;;;;;;46.40;26.50;;;21.90;59.50;;;;;;5051053;28;20439;-80
2021/04/01 13:27:28;;;;;;;44.23;25.47;;;22.00;58.10;;;;;;5032623;28;20862;-77
2021/04/01 13:30:00;;;;;;;42.57;25.40;;;21.90;57.50;;;;;;5049923;28;20542;-77
2021/04/01 13:35:03;;;;;;;40.77;26.90;;;21.90;60.10;;;;;;5051238;28;20509;-79
2021/04/01 13:38:14;;;;;;;52.33;29.90;;;21.90;59.40;;;;;;5037589;28;20459;-77
2021/04/01 13:40:21;;;;;;;46.90;30.23;;;21.90;59.50;;;;;;5046174;28;20510;-80
2021/04/01 13:42:53;;;;;;;51.17;30.93;;;21.90;60.10;;;;;;5052340;28;20432;-80
2021/04/01 13:45:24;;;;;;;49.43;31.70;;;21.90;62.10;;;;;;5038761;28;20476;-77
2021/04/01 13:48:06;;;;;;;47.63;32.40;;;21.90;61.00;;;;;;5035729;28;20427;-80
2021/04/01 13:50:35;;;;;;;52.87;34.40;;;21.90;60.50;;;;;;5036767;28;20462;-80
2021/04/01 13:55:53;;;;;;;53.63;34.83;;;21.80;60.10;;;;;;5035641;28;20866;-78
2021/04/01 13:59:00;;;;;;;53.90;34.40;;;21.70;58.90;;;;;;5051996;28;20435;-78
2021/04/01 14:09:32;;;;;;;55.10;36.77;;;21.60;59.40;;;;;;5051149;28;20467;-80
2021/04/01 14:12:01;;;;;;;59.30;36.57;;;21.50;60.30;;;;;;5054710;28;20459;-80
2021/04/01 14:14:29;;;;;;;60.40;37.90;;;21.60;60.70;;;;;;5051287;28;20459;-78
2021/04/01 14:16:58;;;;;;;60.13;37.60;;;21.60;59.70;;;;;;5053971;28;20951;-79
2021/04/01 14:19:29;;;;;;;60.17;39.50;;;21.50;60.60;;;;;;5051882;28;20459;-80
2021/04/01 14:21:59;;;;;;;69.07;43.80;;;21.50;61.00;;;;;;5054340;28;20434;-80
2021/04/01 14:24:48;;;;;;;65.73;44.40;;;21.50;61.10;;;;;;5049869;28;20509;-79
2021/04/01 14:29:56;;;;;;;81.70;50.53;;;21.40;64.30;;;;;;5044681;28;21704;-79
2021/04/01 14:32:27;;;;;;;73.70;49.90;;;21.40;64.80;;;;;;5057675;28;20431;-80
2021/04/01 14:34:59;;;;;;;82.83;53.03;;;21.40;64.30;;;;;;5037369;28;20530;-76
2021/04/01 14:37:28;;;;;;;70.37;51.03;;;21.30;64.00;;;;;;5046185;28;20479;-78
2021/04/01 14:39:59;;;;;;;76.73;52.63;;;21.10;64.90;;;;;;5019386;28;20467;-81
2021/04/01 14:42:36;;;;;;;90.77;52.83;;;21.10;64.70;;;;;;5037432;28;20427;-79
2021/04/01 14:45:07;;;;;;;75.47;54.87;;;20.90;63.80;;;;;;5035250;28;20523;-79